createdAt,value
2023-12-23T00:02:27.995Z,4.60
2023-12-23T00:05:13.434Z,4.50
2023-12-23T00:07:59.087Z,4.60
2023-12-23T00:10:44.817Z,4.50
2023-12-23T00:13:30.540Z,4.40
2023-12-23T00:16:16.218Z,4.40
2023-12-23T00:19:01.722Z,4.40
2023-12-23T00:21:47.400Z,4.30
2023-12-23T00:24:32.957Z,4.30
2023-12-23T00:27:18.865Z,4.20
2023-12-23T00:30:05.558Z,4.20
2023-12-23T00:32:52.171Z,4.20
2023-12-23T00:35:38.036Z,4.10
2023-12-23T00:38:23.979Z,4.10
2023-12-23T00:41:09.665Z,4.10
2023-12-23T00:43:55.470Z,4.00
2023-12-23T00:46:40.926Z,4.00
2023-12-23T00:49:26.424Z,4.00
2023-12-23T00:52:11.995Z,4.00
2023-12-23T00:54:58.914Z,4.00
2023-12-23T00:57:44.318Z,4.00
2023-12-23T01:00:29.766Z,4.00
2023-12-23T01:03:15.706Z,4.00
2023-12-23T01:06:01.250Z,4.00
2023-12-23T01:08:46.670Z,4.00
2023-12-23T01:11:32.152Z,4.00
2023-12-23T01:14:17.479Z,4.00
2023-12-23T01:17:04.476Z,4.10
2023-12-23T01:19:51.267Z,4.00
2023-12-23T01:22:37.149Z,3.90
2023-12-23T01:25:23.426Z,3.90
2023-12-23T01:28:09.235Z,3.80
2023-12-23T01:30:54.665Z,3.80
2023-12-23T01:33:40.521Z,3.80
2023-12-23T01:36:26.315Z,3.70
2023-12-23T01:39:12.250Z,3.80
2023-12-23T01:41:57.745Z,3.70
2023-12-23T01:44:43.427Z,3.80
2023-12-23T01:47:29.306Z,3.80
2023-12-23T01:50:15.789Z,3.80
2023-12-23T01:53:02.744Z,3.80
2023-12-23T01:55:49.166Z,3.90
2023-12-23T01:58:35.864Z,3.90
2023-12-23T02:01:21.692Z,3.90
2023-12-23T02:04:07.755Z,3.80
2023-12-23T02:06:53.169Z,3.80
2023-12-23T02:09:38.806Z,3.90
2023-12-23T02:12:39.134Z,3.90
2023-12-23T02:15:28.362Z,3.90
2023-12-23T02:18:14.371Z,3.90
2023-12-23T02:21:02.462Z,3.90
2023-12-23T02:23:50.049Z,3.80
2023-12-23T02:26:41.069Z,3.70
2023-12-23T02:29:28.314Z,3.80
2023-12-23T02:32:15.307Z,3.80
2023-12-23T02:35:01.377Z,3.80
2023-12-23T02:37:48.200Z,3.80
2023-12-23T02:40:33.929Z,3.80
2023-12-23T02:43:19.254Z,3.80
2023-12-23T02:46:05.251Z,3.80
2023-12-23T02:48:51.016Z,3.80
2023-12-23T02:51:36.791Z,3.80
2023-12-23T02:54:22.473Z,3.80
2023-12-23T02:57:07.891Z,3.80
2023-12-23T02:59:53.147Z,3.80
2023-12-23T03:02:38.834Z,3.80
2023-12-23T03:05:24.232Z,3.80
2023-12-23T03:08:09.969Z,3.80
2023-12-23T03:10:55.799Z,3.80
2023-12-23T03:13:41.688Z,3.70
2023-12-23T03:16:30.708Z,3.70
2023-12-23T03:19:16.542Z,3.70
2023-12-23T03:22:01.978Z,3.70
2023-12-23T03:24:47.375Z,3.70
2023-12-23T03:27:32.690Z,3.70
2023-12-23T03:30:18.593Z,3.70
2023-12-23T03:33:04.762Z,3.60
2023-12-23T03:35:50.669Z,3.60
2023-12-23T03:38:36.573Z,3.60
2023-12-23T03:41:21.904Z,3.60
2023-12-23T03:44:07.676Z,3.60
2023-12-23T03:46:53.529Z,3.60
2023-12-23T03:49:39.392Z,3.50
2023-12-23T03:52:24.796Z,3.60
2023-12-23T03:55:12.586Z,3.50
2023-12-23T03:57:58.060Z,3.50
2023-12-23T04:00:43.890Z,3.60
2023-12-23T04:03:29.930Z,3.60
2023-12-23T04:06:15.645Z,3.60
2023-12-23T04:09:00.977Z,3.60
2023-12-23T04:11:47.432Z,3.60
2023-12-23T04:14:33.849Z,3.60
2023-12-23T04:17:19.120Z,3.60
2023-12-23T04:20:07.283Z,3.50
2023-12-23T04:22:53.761Z,3.50
2023-12-23T04:25:39.368Z,3.60
2023-12-23T04:28:26.278Z,3.60
2023-12-23T04:31:12.376Z,3.60
2023-12-23T04:33:58.347Z,3.60
2023-12-23T04:36:44.188Z,3.60
2023-12-23T04:39:30.138Z,3.60
2023-12-23T04:42:16.549Z,3.50
2023-12-23T04:45:02.203Z,3.50
2023-12-23T04:47:47.685Z,3.60
2023-12-23T04:50:33.032Z,3.70
2023-12-23T04:53:21.126Z,3.60
2023-12-23T04:56:08.404Z,3.60
2023-12-23T04:58:55.174Z,3.60
2023-12-23T05:01:40.942Z,3.60
2023-12-23T05:04:26.665Z,3.50
2023-12-23T05:07:12.486Z,3.50
2023-12-23T05:09:58.041Z,3.60
2023-12-23T05:12:43.711Z,3.60
2023-12-23T05:15:29.402Z,3.60
2023-12-23T05:18:15.217Z,3.60
2023-12-23T05:21:01.199Z,3.60
2023-12-23T05:23:46.495Z,3.60
2023-12-23T05:26:31.858Z,3.60
2023-12-23T05:29:17.844Z,3.70
2023-12-23T05:32:04.680Z,3.70
2023-12-23T05:34:50.684Z,3.70
2023-12-23T05:37:36.118Z,3.60
2023-12-23T05:40:21.512Z,3.70
2023-12-23T05:43:06.979Z,3.70
2023-12-23T05:45:52.630Z,3.70
2023-12-23T05:48:38.150Z,3.70
2023-12-23T05:51:24.270Z,3.60
2023-12-23T05:54:10.335Z,3.70
2023-12-23T05:56:55.743Z,3.80
2023-12-23T05:59:41.168Z,3.80
2023-12-23T06:02:26.821Z,3.80
2023-12-23T06:05:13.074Z,3.90
2023-12-23T06:07:59.444Z,3.90
2023-12-23T06:10:50.977Z,3.90
2023-12-23T06:13:43.540Z,4.00
2023-12-23T06:16:29.404Z,3.90
2023-12-23T06:19:15.285Z,4.00
2023-12-23T06:22:01.144Z,4.00
2023-12-23T06:24:46.709Z,4.00
2023-12-23T06:27:32.030Z,3.90
2023-12-23T06:30:17.669Z,3.90
2023-12-23T06:33:04.227Z,4.00
2023-12-23T06:35:51.605Z,4.00
2023-12-23T06:38:37.287Z,4.00
2023-12-23T06:41:22.928Z,4.10
2023-12-23T06:44:08.240Z,4.10
2023-12-23T06:46:54.089Z,4.10
2023-12-23T06:49:40.098Z,4.00
2023-12-23T06:52:26.020Z,4.00
2023-12-23T06:55:11.484Z,4.10
2023-12-23T06:57:58.398Z,4.20
2023-12-23T07:00:44.256Z,4.10
2023-12-23T07:03:29.898Z,4.00
2023-12-23T07:06:15.813Z,4.00
2023-12-23T07:09:01.659Z,4.00
2023-12-23T07:11:47.644Z,4.00
2023-12-23T07:14:32.993Z,4.00
2023-12-23T07:17:24.445Z,4.10
2023-12-23T07:20:17.351Z,4.10
2023-12-23T07:23:02.685Z,4.10
2023-12-23T07:25:48.135Z,4.20
2023-12-23T07:28:33.795Z,4.20
2023-12-23T07:31:19.197Z,4.30
2023-12-23T07:34:04.956Z,4.30
2023-12-23T07:36:50.581Z,4.30
2023-12-23T07:39:36.205Z,4.30
2023-12-23T07:42:23.787Z,4.30
2023-12-23T07:45:09.949Z,4.40
2023-12-23T07:47:55.555Z,4.40
2023-12-23T07:50:42.236Z,4.30
2023-12-23T07:53:27.805Z,4.40
2023-12-23T07:56:13.680Z,4.50
2023-12-23T07:58:59.504Z,4.40
2023-12-23T08:01:46.543Z,4.40
2023-12-23T08:04:32.558Z,4.50
2023-12-23T08:07:18.288Z,4.40
2023-12-23T08:10:05.791Z,4.50
2023-12-23T08:12:51.898Z,4.60
2023-12-23T08:15:37.707Z,4.50
2023-12-23T08:18:23.257Z,4.50
2023-12-23T08:21:09.518Z,4.60
2023-12-23T08:23:55.120Z,4.60
2023-12-23T08:26:45.786Z,4.60
2023-12-23T08:29:34.080Z,4.60
2023-12-23T08:32:19.680Z,4.60
2023-12-23T08:35:05.376Z,4.70
2023-12-23T08:37:51.206Z,4.70
2023-12-23T08:40:36.993Z,4.60
2023-12-23T08:43:22.792Z,4.50
2023-12-23T08:46:09.177Z,4.50
2023-12-23T08:48:56.600Z,4.50
2023-12-23T08:51:43.839Z,4.50
2023-12-23T08:54:30.198Z,4.40
2023-12-23T08:57:20.387Z,4.30
2023-12-23T09:00:32.041Z,4.40
2023-12-23T09:03:17.491Z,4.40
2023-12-23T09:06:03.166Z,4.50
2023-12-23T09:08:52.200Z,4.50
2023-12-23T09:11:45.169Z,4.50
2023-12-23T09:14:31.333Z,4.70
2023-12-23T09:17:17.653Z,4.60
2023-12-23T09:20:07.466Z,4.70
2023-12-23T09:22:53.337Z,4.70
2023-12-23T09:25:38.629Z,4.60
2023-12-23T09:28:31.665Z,4.60
2023-12-23T09:31:18.385Z,4.70
2023-12-23T09:34:04.034Z,4.60
2023-12-23T09:36:49.761Z,4.60
2023-12-23T09:39:35.227Z,4.70
2023-12-23T09:42:25.062Z,4.70
2023-12-23T09:45:15.751Z,4.80
2023-12-23T09:48:56.961Z,4.70
2023-12-23T09:51:45.355Z,4.80
2023-12-23T09:54:38.803Z,4.80
2023-12-23T09:57:25.531Z,4.80
2023-12-23T10:00:12.857Z,4.80
2023-12-23T10:03:00.683Z,4.80
2023-12-23T10:05:46.101Z,4.80
2023-12-23T10:08:31.965Z,4.90
2023-12-23T10:11:17.805Z,4.80
2023-12-23T10:14:03.126Z,4.80
2023-12-23T10:16:48.922Z,4.90
2023-12-23T10:19:34.638Z,4.90
2023-12-23T10:22:22.897Z,4.90
2023-12-23T10:25:08.629Z,4.90
2023-12-23T10:28:01.207Z,5.00
2023-12-23T10:30:51.142Z,5.00
2023-12-23T10:33:43.626Z,5.00
2023-12-23T10:36:32.203Z,5.10
2023-12-23T10:39:27.149Z,5.10
2023-12-23T13:29:01.048Z,6.00
2023-12-23T13:31:47.040Z,5.50
2023-12-23T13:34:32.590Z,5.50
2023-12-23T13:37:18.063Z,5.50
2023-12-23T13:40:04.019Z,5.60
2023-12-23T13:42:51.141Z,5.50
2023-12-23T13:45:37.130Z,5.50
2023-12-23T13:48:24.081Z,5.60
2023-12-23T13:51:10.120Z,5.60
2023-12-23T13:53:56.537Z,5.70
2023-12-23T13:56:42.330Z,5.80
2023-12-23T13:59:27.929Z,5.80
2023-12-23T14:02:13.974Z,5.90
2023-12-23T14:04:59.853Z,5.80
2023-12-23T14:07:45.963Z,5.80
2023-12-23T14:10:31.878Z,5.90
2023-12-23T14:13:17.287Z,5.80
2023-12-23T14:16:02.906Z,5.90
2023-12-23T14:18:48.788Z,5.90
2023-12-23T14:21:34.279Z,5.70
2023-12-23T14:24:19.785Z,5.80
2023-12-23T14:27:06.495Z,5.80
2023-12-23T14:29:52.053Z,5.80
2023-12-23T14:32:37.431Z,5.70
2023-12-23T14:35:23.452Z,5.70
2023-12-23T14:38:08.970Z,5.70
2023-12-23T14:40:54.807Z,5.70
2023-12-23T14:43:40.249Z,5.80
2023-12-23T14:46:25.598Z,5.80
2023-12-23T14:49:11.893Z,5.80
2023-12-23T14:51:57.909Z,5.80
2023-12-23T14:54:45.692Z,5.70
2023-12-23T14:57:31.001Z,5.70
2023-12-23T15:00:18.359Z,5.70
2023-12-23T15:03:04.305Z,5.70
2023-12-23T15:05:50.075Z,5.70
2023-12-23T15:08:36.113Z,5.60
2023-12-23T15:11:21.987Z,5.60
2023-12-23T15:14:07.981Z,5.60
2023-12-23T15:16:53.949Z,5.50
2023-12-23T15:19:39.772Z,5.60
2023-12-23T15:22:25.370Z,5.60
2023-12-23T15:25:10.832Z,5.50
2023-12-23T15:27:56.762Z,5.60
2023-12-23T15:30:42.488Z,5.60
2023-12-23T15:33:27.926Z,5.70
2023-12-23T15:36:15.081Z,5.60
2023-12-23T15:39:01.212Z,5.60
2023-12-23T15:41:46.815Z,5.60
2023-12-23T15:44:33.995Z,5.60
2023-12-23T15:47:19.314Z,5.50
2023-12-23T15:50:05.594Z,5.50
2023-12-23T15:52:51.409Z,5.50
2023-12-23T15:55:37.148Z,5.50
2023-12-23T15:58:23.142Z,5.50
2023-12-23T16:01:08.543Z,5.50
2023-12-23T16:03:54.503Z,5.50
2023-12-23T16:06:41.332Z,5.50
2023-12-23T16:09:27.148Z,5.50
2023-12-23T16:12:12.526Z,5.40
2023-12-23T16:14:58.241Z,5.40
2023-12-23T16:17:43.657Z,5.40
2023-12-23T16:20:29.766Z,5.40
2023-12-23T16:23:15.622Z,5.30
2023-12-23T16:26:04.375Z,5.40
2023-12-23T16:28:50.788Z,5.40
2023-12-23T16:31:36.110Z,5.40
2023-12-23T16:34:22.032Z,5.40
2023-12-23T16:37:07.640Z,5.40
2023-12-23T16:39:56.285Z,5.40
2023-12-23T16:42:42.054Z,5.40
2023-12-23T16:45:27.557Z,5.30
2023-12-23T16:48:12.882Z,5.40
2023-12-23T16:50:58.883Z,5.30
2023-12-23T16:53:44.505Z,5.30
2023-12-23T16:56:30.532Z,5.30
2023-12-23T16:59:15.993Z,5.30
2023-12-23T17:02:02.372Z,5.30
2023-12-23T17:04:48.026Z,5.30
2023-12-23T17:07:33.989Z,5.20
2023-12-23T17:10:19.516Z,5.20
2023-12-23T17:13:04.988Z,5.30
2023-12-23T17:15:51.354Z,5.20
2023-12-23T17:18:37.275Z,5.20
2023-12-23T17:21:23.043Z,5.10
2023-12-23T17:24:08.671Z,5.20
2023-12-23T17:26:54.191Z,5.20
2023-12-23T17:29:40.042Z,5.20
2023-12-23T17:32:27.538Z,5.20
2023-12-23T17:35:13.277Z,5.10
2023-12-23T17:38:00.467Z,5.20
2023-12-23T17:40:50.328Z,5.20
2023-12-23T17:43:37.687Z,5.20
2023-12-23T17:46:24.724Z,5.20
2023-12-23T17:49:10.433Z,5.10
2023-12-23T17:51:56.123Z,5.10
2023-12-23T17:54:41.593Z,5.00
2023-12-23T17:57:28.157Z,5.00
2023-12-23T18:00:23.400Z,5.00
2023-12-23T18:03:09.104Z,5.00
2023-12-23T18:05:54.514Z,5.00
2023-12-23T18:08:40.122Z,5.00
2023-12-23T18:11:25.672Z,4.90
2023-12-23T18:14:10.929Z,5.00
2023-12-23T18:16:56.611Z,5.00
2023-12-23T18:19:41.894Z,4.90
2023-12-23T18:22:27.218Z,5.00
2023-12-23T18:25:12.539Z,4.90
2023-12-23T18:27:57.773Z,4.90
2023-12-23T18:30:44.133Z,4.80
2023-12-23T18:33:30.179Z,4.80
2023-12-23T18:36:16.060Z,4.80
2023-12-23T18:39:01.782Z,4.80
2023-12-23T18:41:47.153Z,4.80
2023-12-23T18:44:32.733Z,4.80
2023-12-23T18:47:18.653Z,4.70
2023-12-23T18:50:04.788Z,4.70
2023-12-23T18:52:50.702Z,4.60
2023-12-23T18:55:38.033Z,4.60
2023-12-23T18:58:23.598Z,4.60
2023-12-23T19:01:09.082Z,4.50
2023-12-23T19:03:54.756Z,4.50
2023-12-23T19:06:41.193Z,4.50
2023-12-23T19:09:26.538Z,4.50
2023-12-23T19:12:11.902Z,4.40
2023-12-23T19:14:57.253Z,4.40
2023-12-23T19:17:44.352Z,4.50
2023-12-23T19:20:30.595Z,4.50
2023-12-23T19:23:16.671Z,4.50
2023-12-23T19:26:02.036Z,4.50
2023-12-23T19:28:47.885Z,4.50
2023-12-23T19:31:33.645Z,4.60
2023-12-23T19:34:19.981Z,4.50
2023-12-23T19:37:05.640Z,4.50
2023-12-23T19:39:59.426Z,4.40
2023-12-23T19:42:49.585Z,4.50
2023-12-23T19:45:35.167Z,4.50
2023-12-23T19:48:21.091Z,4.50
2023-12-23T19:51:06.676Z,4.40
2023-12-23T19:53:52.043Z,4.50
2023-12-23T19:56:37.832Z,4.50
2023-12-23T19:59:23.862Z,4.50
2023-12-23T20:02:09.728Z,4.50
2023-12-23T20:04:55.105Z,4.50
2023-12-23T20:07:40.671Z,4.60
2023-12-23T20:10:26.650Z,4.50
2023-12-23T20:13:11.986Z,4.50
2023-12-23T20:15:58.025Z,4.50
2023-12-23T20:18:43.904Z,4.50
2023-12-23T20:21:29.376Z,4.40
2023-12-23T20:24:18.425Z,4.50
2023-12-23T20:27:04.819Z,4.50
2023-12-23T20:29:50.362Z,4.50
2023-12-23T20:32:35.837Z,4.40
2023-12-23T20:35:21.804Z,4.50
2023-12-23T20:38:07.744Z,4.50
2023-12-23T20:40:53.507Z,4.50
2023-12-23T20:43:39.085Z,4.50
2023-12-23T20:46:24.603Z,4.40
2023-12-23T20:49:11.168Z,4.40
2023-12-23T20:51:56.615Z,4.40
2023-12-23T20:54:42.198Z,4.40
2023-12-23T20:57:27.631Z,4.40
2023-12-23T21:00:14.196Z,4.40
2023-12-23T21:03:00.706Z,4.40
2023-12-23T21:05:46.600Z,4.40
2023-12-23T21:08:32.094Z,4.40
2023-12-23T21:11:19.487Z,4.30
2023-12-23T21:14:05.546Z,4.40
2023-12-23T21:16:52.408Z,4.40
2023-12-23T21:19:38.137Z,4.30
2023-12-23T21:22:24.007Z,4.40
2023-12-23T21:25:09.441Z,4.40
2023-12-23T21:27:55.174Z,4.40
2023-12-23T21:30:41.459Z,4.40
2023-12-23T21:33:28.212Z,4.40
2023-12-23T21:36:14.029Z,4.40
2023-12-23T21:38:59.589Z,4.40
2023-12-23T21:41:45.089Z,4.40
2023-12-23T21:44:30.721Z,4.40
2023-12-23T21:47:16.140Z,4.40
2023-12-23T21:50:01.724Z,4.40
2023-12-23T21:52:47.708Z,4.50
2023-12-23T21:55:33.285Z,4.50
2023-12-23T21:58:18.883Z,4.50
2023-12-23T22:01:05.618Z,4.50
2023-12-23T22:03:51.512Z,4.50
2023-12-23T22:06:37.267Z,4.60
2023-12-23T22:09:23.438Z,4.50
2023-12-23T22:12:09.532Z,4.60
2023-12-23T22:14:55.950Z,4.50
2023-12-23T22:17:41.524Z,4.50
2023-12-23T22:20:27.301Z,4.50
2023-12-23T22:23:15.728Z,4.50
2023-12-23T22:26:01.458Z,4.50
2023-12-23T22:28:47.190Z,4.50
2023-12-23T22:31:32.992Z,4.50
2023-12-23T22:34:18.928Z,4.60
2023-12-23T22:37:04.897Z,4.50
2023-12-23T22:39:50.288Z,4.50
2023-12-23T22:42:35.694Z,4.60
2023-12-23T22:45:22.368Z,4.50
2023-12-23T22:48:08.627Z,4.50
2023-12-23T22:50:54.435Z,4.50
2023-12-23T22:53:39.974Z,4.40
2023-12-23T22:56:25.620Z,4.40
2023-12-23T22:59:11.528Z,4.40
2023-12-23T23:01:57.016Z,4.40
2023-12-23T23:04:42.975Z,4.40
2023-12-23T23:07:28.516Z,4.40
2023-12-23T23:10:14.003Z,4.40
2023-12-23T23:12:59.399Z,4.30
2023-12-23T23:15:44.665Z,4.30
2023-12-23T23:18:30.472Z,4.30
2023-12-23T23:21:18.007Z,4.30
2023-12-23T23:24:06.186Z,4.30
2023-12-23T23:26:51.639Z,4.20
2023-12-23T23:29:37.625Z,4.30
2023-12-23T23:32:23.593Z,4.20
2023-12-23T23:35:12.015Z,4.10
2023-12-23T23:37:58.360Z,4.10
2023-12-23T23:40:44.321Z,4.00
2023-12-23T23:43:29.800Z,3.90
2023-12-23T23:46:16.914Z,4.00
2023-12-23T23:49:02.068Z,3.90
2023-12-23T23:51:48.215Z,4.10
2023-12-23T23:54:34.581Z,4.10
2023-12-23T23:57:20.219Z,4.10
